Terminal Aerodrome Forecast
Issued by NWS Bismarck, ND

Home | Current Version | Previous Version | Graphics & Text | Print | Product List | Glossary On
Versions: 1 2 3 4 5 6 7 8 9 10 11 12 13 14
000
FTUS43 KBIS 272300
TAFBIS
TAF
KBIS 272338Z 2800/2824 15008KT P6SM SCT250
     FM281100 16005KT P6SM BKN050 BKN120
     FM281600 28007KT P6SM BKN050 OVC100
     FM281900 31010KT P6SM SCT050 BKN150=

USA.gov is the U.S. government's official web portal to all federal, state and local government web resources and services.